.
WxDataArchive / Data Records for 2007-09-28
2007-09-27 September 2007 2007-09-29

Data Records for Friday, 28 September 2007

Time	Temp	Chill	HIndex	Humid	Dewpt	 Wind 	HiWind	WindDir	Rain 	Barom 
-----	----	-----	------	-----	-----	------	------	-------	-----	----- 
00:00	52.9	52.9	52.9	87	49.1	0	0	---	0.00	29.929 
00:05	52.6	52.6	52.6	87	48.8	0	0	---	0.00	29.926 
00:10	52.5	52.5	52.5	88	49.0	0	0	---	0.00	29.928 
00:15	52.3	52.3	52.3	88	48.9	0	0	---	0.00	29.930 
00:20	52.2	52.2	52.2	89	49.1	0	0	---	0.00	29.931 
00:25	52.2	52.2	52.2	89	49.1	0	0	---	0.00	29.933 
00:30	52.0	52.0	52.0	90	49.2	0	0	---	0.00	29.935 
00:35	51.9	51.9	51.9	90	49.1	0	0	---	0.00	29.938 
00:40	51.7	51.7	51.7	90	48.9	0	0	---	0.00	29.941 
00:45	51.7	51.7	51.7	90	48.9	0	0	---	0.00	29.943 
00:50	51.6	51.6	51.6	90	48.8	0	0	---	0.00	29.944 
00:55	51.4	51.4	51.4	91	48.9	0	0	---	0.00	29.944 
01:00	51.4	51.4	51.4	91	48.9	0	0	---	0.00	29.947 
01:05	51.3	51.3	51.3	91	48.8	0	0	---	0.00	29.946 
01:10	51.3	51.3	51.3	91	48.8	0	0	---	0.00	29.949 
01:15	51.3	51.3	51.3	91	48.8	0	0	---	0.00	29.949 
01:20	51.3	51.3	51.3	91	48.8	0	0	---	0.00	29.950 
01:25	51.3	51.3	51.3	91	48.8	0	0	---	0.00	29.953 
01:30	51.4	51.4	51.4	90	48.6	0	1	68	0.00	29.954 
01:35	51.9	51.9	51.9	89	48.8	0	1	68	0.00	29.953 
01:40	52.2	52.2	52.2	88	48.8	0	0	---	0.00	29.951 
01:45	52.5	52.5	52.5	87	48.7	0	0	---	0.00	29.947 
01:50	52.8	52.8	52.8	87	49.0	0	0	---	0.00	29.949 
01:55	52.9	52.9	52.9	86	48.8	0	0	---	0.00	29.948 
02:00	53.1	53.1	53.1	85	48.7	0	1	68	0.00	29.949 
02:05	53.1	53.1	53.1	85	48.7	0	0	---	0.00	29.952 
02:10	53.1	53.1	53.1	85	48.7	0	0	---	0.00	29.954 
02:15	52.9	52.9	52.9	85	48.5	0	0	---	0.00	29.950 
02:20	52.9	52.9	52.9	85	48.5	0	0	---	0.00	29.953 
02:25	52.8	52.8	52.8	85	48.4	0	0	---	0.00	29.955 
02:30	52.6	52.6	52.6	85	48.2	0	0	---	0.00	29.957 
02:35	52.5	52.5	52.5	85	48.1	0	0	---	0.00	29.957 
02:40	52.3	52.3	52.3	85	47.9	0	1	68	0.00	29.958 
02:45	52.2	52.2	52.2	86	48.1	0	1	68	0.00	29.958 
02:50	52.0	52.0	52.0	86	47.9	0	1	68	0.00	29.956 
02:55	51.9	51.9	51.9	86	47.8	0	0	---	0.00	29.957 
03:00	51.9	51.9	51.9	86	47.8	0	0	---	0.00	29.958 
03:05	51.7	51.7	51.7	87	48.0	0	0	---	0.00	29.960 
03:10	51.7	51.7	51.7	87	48.0	0	0	---	0.00	29.960 
03:15	51.7	51.7	51.7	87	48.0	0	0	---	0.00	29.960 
03:20	51.6	51.6	51.6	87	47.9	0	0	---	0.00	29.961 
03:25	51.6	51.6	51.6	87	47.9	0	0	---	0.00	29.962 
03:30	51.6	51.6	51.6	87	47.9	0	1	68	0.00	29.962 
03:35	51.4	51.4	51.4	87	47.7	0	0	---	0.00	29.964 
03:40	51.4	51.4	51.4	87	47.7	0	0	---	0.00	29.967 
03:45	51.4	51.4	51.4	87	47.7	0	0	---	0.00	29.965 
03:50	51.3	51.3	51.3	87	47.6	0	0	---	0.00	29.968 
03:55	51.3	51.3	51.3	87	47.6	0	0	---	0.00	29.969 
04:00	51.3	51.3	51.3	87	47.6	0	0	---	0.00	29.970 
04:05	51.4	51.4	51.4	87	47.7	0	1	68	0.00	29.970 
04:10	51.6	51.6	51.6	87	47.9	0	0	---	0.00	29.970 
04:15	51.7	51.7	51.7	86	47.6	0	1	68	0.00	29.972 
04:20	51.9	51.9	51.9	86	47.8	0	0	---	0.00	29.973 
04:25	51.9	51.9	51.9	86	47.8	0	1	68	0.00	29.975 
04:30	51.9	51.9	51.9	86	47.8	0	0	---	0.00	29.977 
04:35	51.7	51.7	51.7	86	47.6	0	1	68	0.00	29.978 
04:40	51.7	51.7	51.7	86	47.6	0	1	68	0.00	29.981 
04:45	51.7	51.7	51.7	86	47.6	0	1	68	0.00	29.984 
04:50	51.7	51.7	51.7	86	47.6	0	1	68	0.00	29.986 
04:55	51.7	51.7	51.7	86	47.6	0	1	68	0.00	29.989 
05:00	51.7	51.7	51.7	87	48.0	0	0	---	0.00	29.990 
05:05	51.6	51.6	51.6	87	47.9	0	0	---	0.00	29.994 
05:10	51.4	51.4	51.4	87	47.7	0	0	---	0.00	29.995 
05:15	51.3	51.3	51.3	87	47.6	0	0	---	0.00	29.997 
05:20	51.3	51.3	51.3	87	47.6	0	0	---	0.00	29.998 
05:25	51.1	51.1	51.1	88	47.7	0	0	---	0.00	30.000 
05:30	50.8	50.8	50.8	88	47.4	0	0	---	0.00	30.003 
05:35	50.7	50.7	50.7	88	47.3	0	0	---	0.00	30.008 
05:40	50.4	50.4	50.4	88	47.0	0	0	---	0.00	30.010 
05:45	50.1	50.1	50.1	89	47.0	0	0	---	0.00	30.012 
05:50	49.9	49.9	49.9	90	47.1	0	0	---	0.00	30.014 
05:55	49.8	49.8	49.8	90	47.0	0	0	---	0.00	30.014 
06:00	49.8	49.8	49.8	91	47.3	0	0	---	0.00	30.014 
06:05	49.8	49.8	49.8	91	47.3	0	0	---	0.00	30.018 
06:10	49.9	49.9	49.9	92	47.7	0	0	---	0.00	30.022 
06:15	50.1	50.1	50.1	92	47.9	0	1	68	0.00	30.027 
06:20	50.2	50.2	50.2	92	48.0	0	0	---	0.00	30.029 
06:25	50.2	50.2	50.2	92	48.0	0	1	68	0.00	30.033 
06:30	50.4	50.4	50.4	92	48.2	0	1	68	0.00	30.039 
06:35	50.7	50.7	50.7	92	48.5	0	1	68	0.00	30.041 
06:40	50.8	50.8	50.8	92	48.6	0	1	68	0.00	30.041 
06:45	51.0	51.0	51.0	92	48.8	0	1	68	0.00	30.043 
06:50	51.1	51.1	51.1	92	48.9	0	1	68	0.00	30.043 
06:55	51.3	51.3	51.3	91	48.8	0	1	68	0.00	30.044 
07:00	51.4	51.4	51.4	91	48.9	0	1	68	0.00	30.045 
07:05	51.6	51.6	51.6	91	49.1	0	1	68	0.00	30.051 
07:10	51.9	51.9	51.9	91	49.4	0	1	68	0.00	30.056 
07:15	52.3	52.3	52.3	90	49.5	0	1	68	0.00	30.059 
07:20	52.6	52.6	52.6	90	49.7	0	1	68	0.00	30.060 
07:25	53.1	53.1	53.1	89	49.9	0	2	68	0.00	30.061 
07:30	53.3	53.3	53.3	89	50.1	0	2	68	0.00	30.062 
07:35	53.9	53.9	53.9	88	50.4	1	2	68	0.00	30.062 
07:40	54.4	54.4	54.4	87	50.6	1	2	68	0.00	30.063 
07:45	54.8	54.8	54.8	86	50.7	1	2	68	0.00	30.064 
07:50	55.3	55.3	55.3	85	50.9	1	2	45	0.00	30.070 
07:55	55.7	55.7	55.7	84	50.9	1	3	45	0.00	30.069 
08:00	56.0	56.0	56.0	84	51.2	1	3	270	0.00	30.072 
08:05	56.5	56.5	56.5	83	51.4	1	2	270	0.00	30.077 
08:10	56.9	56.9	56.9	83	51.8	0	2	270	0.00	30.076 
08:15	57.2	57.2	57.2	81	51.4	0	2	270	0.00	30.077 
08:20	57.6	57.6	57.6	80	51.5	1	2	270	0.00	30.079 
08:25	58.1	58.1	58.1	79	51.6	1	2	270	0.00	30.080 
08:30	58.4	58.4	58.4	77	51.2	1	3	270	0.00	30.080 
08:35	58.9	58.9	58.9	76	51.3	1	2	292	0.00	30.080 
08:40	59.5	59.5	59.5	76	51.9	1	3	315	0.00	30.081 
08:45	60.1	60.1	60.1	74	51.8	1	2	315	0.00	30.087 
08:50	60.7	60.7	60.7	74	52.4	1	4	270	0.00	30.088 
08:55	61.2	61.2	61.2	73	52.5	1	2	292	0.00	30.090 
09:00	61.6	61.6	61.6	71	52.1	1	3	292	0.00	30.090 
09:05	62.1	62.1	62.1	69	51.8	1	3	248	0.00	30.090 
09:10	62.7	62.7	62.7	70	52.8	1	3	292	0.00	30.093 
09:15	63.4	63.4	63.4	68	52.6	1	3	292	0.00	30.097 
09:20	63.5	63.5	63.5	67	52.3	2	4	270	0.00	30.099 
09:25	63.9	63.9	63.9	67	52.7	1	3	315	0.00	30.101 
09:30	64.0	64.0	64.0	67	52.8	1	3	315	0.00	30.101 
09:35	64.5	64.5	64.5	68	53.7	1	2	315	0.00	30.103 
09:40	64.8	64.8	64.8	65	52.8	2	5	248	0.00	30.102 
09:45	65.0	65.0	65.0	65	52.9	2	4	270	0.00	30.104 
09:50	65.2	65.2	65.2	66	53.5	1	4	270	0.00	30.107 
09:55	65.5	65.5	65.5	64	53.0	2	4	315	0.00	30.108 
10:00	65.6	65.6	65.6	63	52.7	1	4	315	0.00	30.108 
10:05	65.8	65.8	65.8	63	52.8	2	4	270	0.00	30.111 
10:10	66.1	66.1	66.1	63	53.1	1	3	292	0.00	30.109 
10:15	66.8	66.8	66.8	63	53.8	1	3	315	0.00	30.110 
10:20	67.1	67.1	67.1	61	53.2	2	7	270	0.00	30.112 
10:25	67.8	67.8	67.8	63	54.7	1	3	248	0.00	30.111 
10:30	68.1	68.1	68.1	58	52.8	2	4	292	0.00	30.111 
10:35	68.4	68.4	68.4	60	54.0	1	3	292	0.00	30.108 
10:40	68.6	68.6	68.6	58	53.2	1	3	270	0.00	30.105 
10:45	68.9	68.9	68.9	60	54.4	1	4	270	0.00	30.108 
10:50	69.4	69.4	69.4	59	54.4	1	3	315	0.00	30.108 
10:55	69.4	69.4	69.4	57	53.5	1	3	315	0.00	30.109 
11:00	69.3	69.3	69.3	57	53.4	2	5	315	0.00	30.109 
11:05	69.4	69.4	69.4	53	51.5	2	5	292	0.00	30.112 
11:10	69.8	69.8	69.8	52	51.4	1	3	292	0.00	30.112 
11:15	69.6	69.6	69.6	51	50.7	1	4	292	0.00	30.115 
11:20	70.3	70.3	70.3	52	51.8	0	3	338	0.00	30.114 
11:25	70.3	70.3	70.3	49	50.2	2	5	292	0.00	30.117 
11:30	70.3	70.3	70.3	52	51.8	2	5	292	0.00	30.117 
11:35	70.6	70.6	70.6	48	49.9	1	4	270	0.00	30.116 
11:40	70.6	70.6	70.6	48	49.9	2	5	270	0.00	30.117 
11:45	70.9	70.9	70.9	46	49.1	1	6	248	0.00	30.116 
11:50	71.1	71.1	71.1	43	47.5	2	5	315	0.00	30.117 
11:55	71.6	71.6	71.6	44	48.5	1	3	292	0.00	30.117 
12:00	71.6	71.6	71.6	41	46.6	1	3	292	0.00	30.117 
12:05	71.5	71.5	71.5	40	45.9	2	7	315	0.00	30.120 
12:10	71.6	71.6	71.6	43	47.9	1	4	270	0.00	30.120 
12:15	72.1	72.1	72.1	42	47.7	1	4	270	0.00	30.119 
12:20	72.1	72.1	72.1	39	45.8	1	4	292	0.00	30.120 
12:25	72.1	72.1	72.1	39	45.8	1	4	315	0.00	30.121 
12:30	72.0	72.0	72.0	41	47.0	1	3	292	0.00	30.120 
12:35	72.3	72.3	72.3	39	45.9	1	4	270	0.00	30.120 
12:40	72.5	72.5	72.5	40	46.8	1	7	338	0.00	30.118 
12:45	72.7	72.7	72.7	38	45.6	1	3	315	0.00	30.116 
12:50	72.3	72.3	72.3	35	43.1	2	4	315	0.00	30.116 
12:55	72.5	72.5	72.5	36	44.0	2	4	270	0.00	30.117 
13:00	72.7	72.7	72.7	35	43.5	2	5	315	0.00	30.116 
13:05	72.5	72.5	72.5	35	43.3	1	4	270	0.00	30.114 
13:10	72.7	72.7	72.7	32	41.1	2	4	315	0.00	30.114 
13:15	72.7	72.7	72.7	36	44.2	2	4	292	0.00	30.113 
13:20	72.5	72.5	72.5	35	43.3	2	6	292	0.00	30.114 
13:25	72.5	72.5	72.5	32	41.0	2	6	338	0.00	30.113 
13:30	72.7	72.7	72.7	35	43.5	3	4	292	0.00	30.114 
13:35	72.7	72.7	72.7	34	42.7	2	6	248	0.00	30.113 
13:40	72.8	72.8	72.8	35	43.5	2	4	292	0.00	30.115 
13:45	72.8	72.8	72.8	34	42.8	2	5	315	0.00	30.112 
13:50	72.7	72.7	72.7	33	41.9	2	5	315	0.00	30.112 
13:55	73.0	73.0	73.0	35	43.7	1	4	338	0.00	30.112 
14:00	72.7	72.7	72.7	35	43.5	1	3	315	0.00	30.111 
14:05	72.8	72.8	72.8	36	44.3	1	3	338	0.00	30.110 
14:10	72.8	72.8	72.8	36	44.3	1	3	315	0.00	30.111 
14:15	72.7	72.7	72.7	36	44.2	1	4	315	0.00	30.109 
14:20	72.8	72.8	72.8	33	42.0	1	5	338	0.00	30.114 
14:25	72.7	72.7	72.7	35	43.5	1	3	315	0.00	30.114 
14:30	72.8	72.8	72.8	30	39.5	3	5	270	0.00	30.116 
14:35	72.8	72.8	72.8	29	38.7	3	7	315	0.00	30.118 
14:40	72.7	72.7	72.7	29	38.6	2	7	292	0.00	30.118 
14:45	72.7	72.7	72.7	29	38.6	2	6	292	0.00	30.116 
14:50	72.5	72.5	72.5	28	37.5	2	5	292	0.00	30.118 
14:55	72.5	72.5	72.5	30	39.3	2	4	315	0.00	30.116 
15:00	72.8	72.8	72.8	28	37.8	2	4	270	0.00	30.116 
15:05	72.8	72.8	72.8	29	38.7	1	4	270	0.00	30.117 
15:10	72.7	72.7	72.7	29	38.6	2	5	315	0.00	30.118 
15:15	72.3	72.3	72.3	30	39.1	2	5	315	0.00	30.118 
15:20	72.5	72.5	72.5	30	39.3	1	5	270	0.00	30.117 
15:25	72.7	72.7	72.7	29	38.6	1	4	270	0.00	30.115 
15:30	72.5	72.5	72.5	28	37.5	1	4	315	0.00	30.111 
15:35	72.3	72.3	72.3	29	38.3	1	4	292	0.00	30.113 
15:40	72.3	72.3	72.3	28	37.4	2	4	292	0.00	30.113 
15:45	72.0	72.0	72.0	29	38.0	1	3	292	0.00	30.112 
15:50	72.1	72.1	72.1	28	37.2	1	3	315	0.00	30.113 
15:55	72.1	72.1	72.1	30	38.9	1	4	292	0.00	30.112 
16:00	72.0	72.0	72.0	29	38.0	1	4	338	0.00	30.114 
16:05	72.0	72.0	72.0	30	38.9	1	3	315	0.00	30.115 
16:10	72.0	72.0	72.0	29	38.0	1	2	338	0.00	30.117 
16:15	72.0	72.0	72.0	30	38.9	1	3	292	0.00	30.118 
16:20	71.8	71.8	71.8	31	39.5	1	4	315	0.00	30.118 
16:25	71.8	71.8	71.8	29	37.8	1	2	315	0.00	30.118 
16:30	71.6	71.6	71.6	30	38.5	1	4	315	0.00	30.119 
16:35	71.8	71.8	71.8	29	37.8	1	3	338	0.00	30.119 
16:40	71.6	71.6	71.6	29	37.6	1	2	292	0.00	30.121 
16:45	71.5	71.5	71.5	31	39.3	1	3	292	0.00	30.122 
16:50	71.3	71.3	71.3	32	39.9	0	2	292	0.00	30.124 
16:55	71.3	71.3	71.3	32	39.9	1	3	292	0.00	30.131 
17:00	71.1	71.1	71.1	32	39.7	1	4	315	0.00	30.133 
17:05	70.9	70.9	70.9	34	41.1	0	2	315	0.00	30.135 
17:10	70.8	70.8	70.8	34	41.0	0	1	315	0.00	30.137 
17:15	70.4	70.4	70.4	34	40.7	0	1	315	0.00	30.137 
17:20	70.1	70.1	70.1	34	40.4	0	2	315	0.00	30.137 
17:25	69.9	69.9	69.9	36	41.7	0	1	315	0.00	30.137 
17:30	69.8	69.8	69.8	37	42.3	0	1	315	0.00	30.138 
17:35	69.4	69.4	69.4	36	41.3	0	2	315	0.00	30.138 
17:40	69.1	69.1	69.1	38	42.4	0	1	315	0.00	30.140 
17:45	68.9	68.9	68.9	38	42.2	0	1	315	0.00	30.141 
17:50	68.6	68.6	68.6	41	44.0	0	0	---	0.00	30.142 
17:55	68.1	68.1	68.1	42	44.1	0	0	---	0.00	30.144 
18:00	67.8	67.8	67.8	42	43.9	0	1	315	0.00	30.151 
18:05	67.4	67.4	67.4	43	44.1	0	1	315	0.00	30.152 
18:10	67.1	67.1	67.1	44	44.5	0	0	---	0.00	30.153 
18:15	66.6	66.6	66.6	45	44.6	0	0	---	0.00	30.152 
18:20	66.1	66.1	66.1	46	44.7	0	0	---	0.00	30.155 
18:25	65.6	65.6	65.6	47	44.8	0	1	315	0.00	30.156 
18:30	65.3	65.3	65.3	48	45.1	0	0	---	0.00	30.156 
18:35	64.7	64.7	64.7	49	45.1	0	0	---	0.00	30.155 
18:40	64.0	64.0	64.0	50	45.0	0	0	---	0.00	30.155 
18:45	63.5	63.5	63.5	52	45.6	0	0	---	0.00	30.154 
18:50	63.1	63.1	63.1	53	45.7	0	0	---	0.00	30.155 
18:55	62.6	62.6	62.6	53	45.2	0	0	---	0.00	30.157 
19:00	62.1	62.1	62.1	54	45.3	0	0	---	0.00	30.159 
19:05	61.8	61.8	61.8	55	45.5	0	0	---	0.00	30.156 
19:10	61.3	61.3	61.3	56	45.5	0	0	---	0.00	30.160 
19:15	61.0	61.0	61.0	57	45.7	0	0	---	0.00	30.167 
19:20	60.9	60.9	60.9	58	46.0	0	0	---	0.00	30.170 
19:25	60.5	60.5	60.5	58	45.6	0	0	---	0.00	30.170 
19:30	60.2	60.2	60.2	58	45.4	0	0	---	0.00	30.171 
19:35	59.9	59.9	59.9	59	45.5	0	0	---	0.00	30.172 
19:40	59.6	59.6	59.6	60	45.7	0	0	---	0.00	30.172 
19:45	59.3	59.3	59.3	61	45.8	0	0	---	0.00	30.176 
19:50	59.0	59.0	59.0	62	46.0	0	0	---	0.00	30.179 
19:55	58.7	58.7	58.7	62	45.7	0	0	---	0.00	30.182 
20:00	58.4	58.4	58.4	63	45.9	0	0	---	0.00	30.182 
20:05	58.3	58.3	58.3	64	46.2	0	0	---	0.00	30.180 
20:10	58.0	58.0	58.0	65	46.3	0	0	---	0.00	30.182 
20:15	57.6	57.6	57.6	66	46.3	0	0	---	0.00	30.182 
20:20	57.3	57.3	57.3	66	46.0	0	0	---	0.00	30.184 
20:25	56.9	56.9	56.9	67	46.1	0	0	---	0.00	30.186 
20:30	56.6	56.6	56.6	68	46.2	0	0	---	0.00	30.186 
20:35	56.3	56.3	56.3	68	45.9	0	0	---	0.00	30.187 
20:40	56.0	56.0	56.0	70	46.4	0	0	---	0.00	30.188 
20:45	55.7	55.7	55.7	70	46.1	0	0	---	0.00	30.189 
20:50	55.6	55.6	55.6	71	46.3	0	0	---	0.00	30.193 
20:55	55.3	55.3	55.3	72	46.4	0	0	---	0.00	30.197 
21:00	55.1	55.1	55.1	73	46.6	0	0	---	0.00	30.196 
21:05	54.7	54.7	54.7	73	46.2	0	0	---	0.00	30.193 
21:10	54.4	54.4	54.4	74	46.3	0	0	---	0.00	30.195 
21:15	54.1	54.1	54.1	75	46.4	0	0	---	0.00	30.196 
21:20	53.8	53.8	53.8	76	46.4	0	0	---	0.00	30.196 
21:25	53.5	53.5	53.5	76	46.1	0	0	---	0.00	30.197 
21:30	53.3	53.3	53.3	77	46.3	0	0	---	0.00	30.200 
21:35	53.1	53.1	53.1	77	46.1	0	0	---	0.00	30.200 
21:40	52.8	52.8	52.8	79	46.5	0	0	---	0.00	30.201 
21:45	52.5	52.5	52.5	80	46.5	0	0	---	0.00	30.202 
21:50	52.2	52.2	52.2	80	46.2	0	0	---	0.00	30.202 
21:55	52.0	52.0	52.0	81	46.4	0	0	---	0.00	30.202 
22:00	51.7	51.7	51.7	81	46.1	0	0	---	0.00	30.200 
22:05	51.6	51.6	51.6	82	46.3	0	0	---	0.00	30.199 
22:10	51.6	51.6	51.6	82	46.3	0	0	---	0.00	30.200 
22:15	51.4	51.4	51.4	82	46.1	0	0	---	0.00	30.200 
22:20	51.1	51.1	51.1	83	46.1	0	0	---	0.00	30.200 
22:25	51.0	51.0	51.0	83	46.0	0	0	---	0.00	30.200 
22:30	51.0	51.0	51.0	84	46.3	0	0	---	0.00	30.199 
22:35	50.8	50.8	50.8	84	46.1	0	0	---	0.00	30.200 
22:40	50.5	50.5	50.5	84	45.8	0	0	---	0.00	30.200 
22:45	50.4	50.4	50.4	84	45.7	0	0	---	0.00	30.202 
22:50	50.2	50.2	50.2	85	45.9	0	0	---	0.00	30.201 
22:55	50.1	50.1	50.1	85	45.8	0	0	---	0.00	30.202 
23:00	49.9	49.9	49.9	85	45.6	0	0	---	0.00	30.202 
23:05	49.6	49.6	49.6	86	45.6	0	0	---	0.00	30.199 
23:10	49.5	49.5	49.5	86	45.5	0	0	---	0.00	30.200 
23:15	49.4	49.4	49.4	86	45.4	0	0	---	0.00	30.200 
23:20	49.2	49.2	49.2	87	45.5	0	0	---	0.00	30.199 
23:25	49.1	49.1	49.1	88	45.7	0	0	---	0.00	30.200 
23:30	48.8	48.8	48.8	88	45.4	0	0	---	0.00	30.199 
23:35	48.6	48.6	48.6	88	45.2	0	0	---	0.00	30.199 
23:40	48.5	48.5	48.5	88	45.1	0	0	---	0.00	30.200 
23:45	48.3	48.3	48.3	89	45.2	0	0	---	0.00	30.202 
23:50	48.2	48.2	48.2	89	45.1	0	0	---	0.00	30.204 
23:55	48.2	48.2	48.2	90	45.4	0	0	---	0.00	30.206 

CoCoRaHS
IN-AL-39
A2 Web Hosting
Creative Commons License
GoDaddy
Look for:

loaded 2017-12-12 17:08:34 • last modified 2010-11-18 10:43:29
Privacy PolicyDisclaimer
• wx.awcolley.com is powered by PmWiki v.2002016 •
• all content (unless otherwise noted) © 2017 A W Colley